Time;durP1;ratioP1;P1;durP2;ratioP2;P2;SDS_P1;SDS_P2;PMS_P1;PMS_P2;Temp;Humidity;BMP_temperature;BMP_pressure;BME280_temperature;BME280_humidity;BME280_pressure;Samples;Min_cycle;Max_cycle;Signal;HPM_P1;HPM_P2
2022/12/30 00:00:10;;;;;;;29.90;5.40;;;8.60;99.90;;;;;;4994226;28;20468;-65
2022/12/30 00:02:36;;;;;;;32.28;6.55;;;8.50;99.90;;;;;;4992914;28;20034;-63
2022/12/30 00:05:02;;;;;;;37.17;5.85;;;8.50;99.90;;;;;;4993598;28;20048;-63
2022/12/30 00:07:27;;;;;;;26.83;4.95;;;8.60;99.90;;;;;;4992745;28;20038;-63
2022/12/30 00:09:55;;;;;;;38.72;6.15;;;8.80;99.90;;;;;;4991620;28;20046;-63
2022/12/30 00:34:37;;;;;;;26.00;5.88;;;8.40;99.90;;;;;;4993510;28;20475;-63
2022/12/30 00:37:03;;;;;;;40.38;6.40;;;8.40;99.90;;;;;;4986544;28;20046;-63
2022/12/30 00:39:28;;;;;;;35.67;6.30;;;8.50;1.00;;;;;;5000076;28;20034;-64
2022/12/30 00:44:38;;;;;;;40.00;6.95;;;8.80;1.00;;;;;;4992035;28;20108;-63
2022/12/30 00:47:06;;;;;;;36.95;5.72;;;8.80;1.00;;;;;;4992139;28;20435;-63
2022/12/30 00:57:44;;;;;;;32.10;5.68;;;8.50;1.00;;;;;;4992366;28;20046;-63
2022/12/30 01:00:11;;;;;;;39.25;6.22;;;8.40;99.90;;;;;;4992498;28;20440;-62
2022/12/30 01:02:37;;;;;;;27.90;5.90;;;8.30;99.90;;;;;;4992699;28;20042;-64
2022/12/30 01:05:04;;;;;;;34.67;6.32;;;8.30;99.90;;;;;;4989722;28;20042;-63
2022/12/30 01:07:30;;;;;;;35.65;5.22;;;8.30;99.90;;;;;;4992320;28;20700;-63
2022/12/30 01:09:57;;;;;;;30.42;5.22;;;8.00;99.90;;;;;;4992719;28;20042;-63
2022/12/30 01:12:22;;;;;;;26.67;5.13;;;8.30;1.00;;;;;;4992052;28;20081;-65
2022/12/30 01:14:53;;;;;;;24.67;5.03;;;8.30;1.00;;;;;;4990372;28;20519;-63
2022/12/30 01:17:22;;;;;;;33.33;5.97;;;8.40;15.10;;;;;;4990602;28;20050;-62
2022/12/30 01:19:48;;;;;;;29.30;5.28;;;8.50;79.70;;;;;;4988532;28;20034;-63
2022/12/30 01:22:14;;;;;;;32.70;4.90;;;8.60;99.90;;;;;;4991136;28;20039;-62
2022/12/30 01:24:40;;;;;;;31.17;5.45;;;8.70;99.90;;;;;;5008777;28;20450;-63
2022/12/30 01:27:06;;;;;;;40.45;6.10;;;8.60;58.70;;;;;;5009497;28;20177;-63
2022/12/30 01:29:36;;;;;;;26.17;5.43;;;8.30;1.00;;;;;;4991896;28;20503;-63
2022/12/30 01:32:06;;;;;;;31.92;5.60;;;8.10;1.00;;;;;;4992007;28;20053;-63
2022/12/30 01:34:32;;;;;;;36.30;6.85;;;7.70;1.00;;;;;;4992874;28;20572;-63
2022/12/30 01:36:58;;;;;;;30.15;6.10;;;7.60;17.70;;;;;;4991920;28;20038;-62
2022/12/30 01:39:24;;;;;;;30.77;6.13;;;7.40;99.50;;;;;;4993257;28;20038;-63
2022/12/30 01:41:50;;;;;;;39.20;6.85;;;7.70;99.90;;;;;;4992303;28;20092;-62
2022/12/30 01:44:49;;;;;;;34.70;6.63;;;7.30;99.90;;;;;;4991248;28;20410;-63
2022/12/30 01:47:40;;;;;;;35.67;5.63;;;7.60;99.90;;;;;;4990901;28;20046;-63
2022/12/30 01:50:09;;;;;;;40.67;6.55;;;7.90;1.00;;;;;;4990136;28;20088;-64
2022/12/30 01:52:38;;;;;;;33.17;5.88;;;7.90;91.50;;;;;;4990326;28;20549;-63
2022/12/30 01:55:09;;;;;;;32.40;5.90;;;8.10;99.90;;;;;;4991332;28;20066;-63
2022/12/30 01:57:39;;;;;;;41.58;6.13;;;8.00;99.90;;;;;;4989071;28;20100;-63
2022/12/30 02:00:07;;;;;;;32.00;4.97;;;7.80;99.90;;;;;;4990590;28;20046;-63
2022/12/30 02:02:33;;;;;;;38.85;6.03;;;7.70;1.00;;;;;;4987784;28;20065;-63
2022/12/30 02:05:01;;;;;;;32.13;5.43;;;7.60;1.00;;;;;;4990020;28;20046;-63
2022/12/30 02:07:31;;;;;;;43.90;7.35;;;7.90;1.00;;;;;;4987885;28;20491;-63
2022/12/30 02:09:58;;;;;;;33.97;6.25;;;7.20;1.00;;;;;;4991323;28;20391;-63
2022/12/30 02:12:24;;;;;;;31.77;5.88;;;7.20;1.00;;;;;;4990472;28;20490;-63
2022/12/30 02:14:51;;;;;;;40.70;6.32;;;7.10;28.40;;;;;;4992363;28;20117;-62
2022/12/30 02:17:37;;;;;;;30.00;5.43;;;6.80;99.90;;;;;;4991012;28;20491;-62
2022/12/30 02:20:06;;;;;;;;;;;7.70;1.00;;;;;;4992861;28;20109;-63
2022/12/30 02:22:52;;;;;;;36.22;5.60;;;7.70;99.90;;;;;;4992183;28;20012;-63
2022/12/30 02:25:49;;;;;;;32.13;5.40;;;7.60;99.90;;;;;;4985275;28;20046;-63
2022/12/30 02:28:33;;;;;;;28.25;5.25;;;7.90;1.00;;;;;;4990748;28;20034;-62
2022/12/30 02:31:25;;;;;;;32.38;5.28;;;7.90;99.90;;;;;;4991448;28;20508;-62
2022/12/30 02:34:09;;;;;;;29.38;5.50;;;7.80;82.00;;;;;;4992911;28;20038;-62
2022/12/30 02:36:55;;;;;;;28.20;4.90;;;7.60;1.00;;;;;;4989194;28;20395;-63
2022/12/30 02:39:37;;;;;;;37.72;6.78;;;7.70;1.00;;;;;;4992238;28;20133;-64
2022/12/30 02:45:18;;;;;;;38.53;5.18;;;8.00;1.00;;;;;;4993993;28;20380;-64
2022/12/30 02:47:51;;;;;;;27.30;5.47;;;8.10;1.00;;;;;;4993808;28;20145;-64
2022/12/30 02:53:21;;;;;;;28.42;5.25;;;8.00;99.90;;;;;;4992349;28;20109;-63
2022/12/30 02:55:48;;;;;;;25.85;4.93;;;8.20;99.90;;;;;;4994264;28;20399;-64
2022/12/30 02:58:14;;;;;;;26.30;4.85;;;8.30;99.90;;;;;;4993086;28;20475;-63
2022/12/30 03:04:04;;;;;;;27.25;5.20;;;8.20;1.00;;;;;;4993663;28;20097;-64
2022/12/30 03:07:02;;;;;;;31.45;5.25;;;8.30;99.90;;;;;;4988782;28;20037;-63
2022/12/30 03:11:12;;;;;;;34.67;5.35;;;8.10;99.90;;;;;;4994225;28;20090;-62
2022/12/30 03:12:39;;;;;;;31.25;5.25;;;7.70;1.00;;;;;;4994528;28;20397;-62
2022/12/30 03:15:12;;;;;;;30.38;5.20;;;7.70;1.00;;;;;;4990147;28;20058;-64
2022/12/30 03:17:39;;;;;;;31.00;5.63;;;7.50;1.00;;;;;;4992852;28;20038;-63
2022/12/30 03:20:11;;;;;;;28.75;5.10;;;7.20;99.90;;;;;;4994338;28;20046;-63
2022/12/30 03:28:14;;;;;;;32.13;5.40;;;7.10;1.00;;;;;;4993185;28;20045;-62
2022/12/30 03:30:46;;;;;;;26.20;5.47;;;7.00;83.00;;;;;;4993338;28;20038;-62
2022/12/30 03:33:13;;;;;;;39.75;6.15;;;6.90;99.90;;;;;;4993700;28;20046;-62
2022/12/30 03:35:46;;;;;;;31.15;4.95;;;7.10;99.90;;;;;;4991565;28;20384;-63
2022/12/30 03:38:13;;;;;;;32.53;5.28;;;6.90;99.90;;;;;;4993888;28;20510;-62
2022/12/30 03:40:41;;;;;;;29.23;4.88;;;7.20;1.00;;;;;;4991924;28;20053;-62
2022/12/30 03:43:07;;;;;;;33.05;5.78;;;6.90;94.10;;;;;;4993359;28;20041;-62
2022/12/30 03:45:33;;;;;;;30.85;4.57;;;7.30;99.90;;;;;;4991565;28;20042;-63
2022/12/30 03:47:59;;;;;;;28.23;4.38;;;7.50;99.90;;;;;;4992087;28;20399;-62
2022/12/30 03:50:24;;;;;;;27.80;5.30;;;7.60;1.00;;;;;;4992183;28;20034;-63
2022/12/30 03:52:50;;;;;;;39.20;6.60;;;7.30;99.90;;;;;;4993398;28;20034;-63
2022/12/30 03:55:16;;;;;;;32.78;5.75;;;7.30;1.00;;;;;;4993721;28;20074;-62
2022/12/30 03:57:41;;;;;;;38.58;5.45;;;7.20;1.00;;;;;;4991521;28;20502;-62
2022/12/30 04:00:11;;;;;;;36.83;6.10;;;7.20;91.10;;;;;;4991749;28;20038;-64
2022/12/30 04:02:38;;;;;;;39.20;6.88;;;7.10;99.90;;;;;;4980128;28;20492;-63
2022/12/30 04:05:05;;;;;;;19.70;4.28;;;7.20;99.90;;;;;;4993857;28;20511;-63
2022/12/30 04:07:30;;;;;;;28.88;5.63;;;7.80;99.90;;;;;;4992469;28;20491;-63
2022/12/30 04:09:56;;;;;;;30.10;5.85;;;7.80;99.90;;;;;;4993206;28;20101;-63
2022/12/30 04:12:22;;;;;;;41.25;7.55;;;7.40;99.90;;;;;;4988346;28;20046;-63
2022/12/30 04:14:47;;;;;;;23.75;4.82;;;7.80;99.90;;;;;;4990957;28;20038;-62
2022/12/30 04:17:13;;;;;;;24.65;4.47;;;7.60;99.90;;;;;;4992279;28;20521;-65
2022/12/30 04:19:38;;;;;;;29.13;4.85;;;7.50;99.90;;;;;;4989402;28;20534;-62
2022/12/30 04:22:04;;;;;;;24.60;5.15;;;7.50;99.90;;;;;;4987104;28;20133;-63
2022/12/30 04:24:30;;;;;;;22.98;4.88;;;7.60;99.90;;;;;;4988244;28;20480;-63
2022/12/30 04:26:55;;;;;;;28.83;5.80;;;8.10;99.90;;;;;;4991938;28;20038;-62
2022/12/30 04:29:21;;;;;;;31.83;5.57;;;7.80;99.90;;;;;;4993063;28;20061;-63
2022/12/30 04:31:46;;;;;;;21.52;4.93;;;7.70;99.90;;;;;;4993094;28;20042;-63
2022/12/30 04:34:14;;;;;;;25.63;5.13;;;7.80;99.90;;;;;;4989371;28;20145;-65
2022/12/30 04:36:41;;;;;;;20.27;4.57;;;8.00;99.90;;;;;;4990223;28;20034;-63
2022/12/30 04:39:07;;;;;;;20.23;4.25;;;7.70;99.90;;;;;;4990455;28;20039;-63
2022/12/30 04:41:32;;;;;;;25.33;5.57;;;7.70;99.90;;;;;;4992264;28;20085;-63
2022/12/30 04:44:01;;;;;;;21.45;4.70;;;7.70;99.90;;;;;;4985641;28;20601;-62
2022/12/30 04:46:28;;;;;;;14.40;4.57;;;7.50;99.90;;;;;;4992995;28;20072;-64
2022/12/30 04:48:53;;;;;;;25.23;6.57;;;7.80;99.90;;;;;;4991562;28;20042;-63
2022/12/30 04:51:19;;;;;;;22.15;5.93;;;7.90;99.90;;;;;;4990934;28;20410;-63
2022/12/30 04:53:45;;;;;;;30.70;6.97;;;7.90;99.90;;;;;;4992176;28;20030;-62
2022/12/30 04:56:10;;;;;;;31.20;8.10;;;7.80;99.90;;;;;;4991212;28;20054;-63
2022/12/30 04:58:36;;;;;;;25.30;9.00;;;7.70;99.90;;;;;;4992012;28;20541;-63
2022/12/30 05:01:02;;;;;;;29.70;7.80;;;8.30;99.90;;;;;;4991967;28;20057;-63
2022/12/30 05:03:27;;;;;;;25.92;8.60;;;7.70;99.90;;;;;;4993090;28;20038;-63
2022/12/30 05:05:53;;;;;;;31.00;8.50;;;8.40;99.90;;;;;;4993252;28;20080;-63
2022/12/30 05:08:19;;;;;;;36.97;9.55;;;8.40;99.90;;;;;;4992417;28;20129;-63
2022/12/30 05:10:44;;;;;;;25.55;9.13;;;7.90;99.90;;;;;;4991028;28;20030;-63
2022/12/30 05:13:10;;;;;;;27.77;10.40;;;8.20;99.90;;;;;;4990705;28;20105;-62
2022/12/30 05:15:35;;;;;;;21.38;8.45;;;8.20;99.90;;;;;;4990441;28;20037;-63
2022/12/30 05:18:01;;;;;;;25.10;10.63;;;8.00;99.90;;;;;;4989992;28;20076;-64
2022/12/30 05:20:27;;;;;;;25.17;10.25;;;7.90;99.90;;;;;;4992290;28;20093;-63
2022/12/30 05:22:52;;;;;;;24.70;10.88;;;7.70;99.90;;;;;;4990565;28;20414;-63
2022/12/30 05:28:02;;;;;;;24.15;10.43;;;8.50;99.90;;;;;;4991536;28;20054;-63
2022/12/30 05:30:28;;;;;;;26.42;10.38;;;8.60;99.90;;;;;;4992557;28;20411;-64
2022/12/30 05:32:54;;;;;;;26.65;11.55;;;8.40;99.90;;;;;;4990117;28;20034;-64
2022/12/30 05:35:19;;;;;;;25.48;9.73;;;8.40;99.90;;;;;;4990057;28;20034;-63
2022/12/30 05:37:45;;;;;;;30.23;9.93;;;8.30;99.90;;;;;;4988971;28;20034;-62
2022/12/30 05:40:11;;;;;;;20.77;6.65;;;8.10;99.90;;;;;;4993222;28;20046;-63
2022/12/30 05:42:37;;;;;;;23.85;8.23;;;8.20;99.90;;;;;;4991133;28;20165;-63
2022/12/30 05:45:04;;;;;;;18.25;6.95;;;7.90;99.90;;;;;;4991300;28;20042;-63
2022/12/30 05:47:30;;;;;;;20.67;8.63;;;7.80;99.90;;;;;;4992514;28;20535;-63
2022/12/30 05:49:55;;;;;;;27.10;9.75;;;8.00;99.90;;;;;;4991239;28;20177;-63
2022/12/30 05:52:21;;;;;;;23.80;8.93;;;8.50;99.90;;;;;;4990182;28;20042;-63
2022/12/30 05:54:47;;;;;;;19.80;7.43;;;8.20;99.90;;;;;;4991647;28;20037;-63
2022/12/30 05:57:12;;;;;;;20.90;7.43;;;8.30;99.90;;;;;;4991246;28;20128;-63
2022/12/30 05:59:38;;;;;;;20.33;7.28;;;8.30;99.90;;;;;;4991947;28;20038;-63
2022/12/30 06:02:04;;;;;;;21.60;7.70;;;8.50;99.90;;;;;;4991017;28;20053;-63
2022/12/30 06:04:29;;;;;;;17.25;6.68;;;7.90;99.90;;;;;;4990742;28;20035;-64
2022/12/30 06:06:55;;;;;;;19.70;6.25;;;8.40;99.90;;;;;;4992359;28;20093;-62
2022/12/30 06:09:21;;;;;;;16.27;5.70;;;8.00;99.90;;;;;;4995610;28;20407;-62
2022/12/30 06:11:46;;;;;;;22.70;5.97;;;8.00;99.90;;;;;;4995168;28;20408;-63
2022/12/30 06:14:15;;;;;;;13.35;5.50;;;7.90;99.90;;;;;;4995010;28;20142;-62
2022/12/30 06:16:41;;;;;;;22.15;7.32;;;7.70;99.90;;;;;;4995894;28;20506;-64
2022/12/30 06:19:07;;;;;;;20.60;6.82;;;7.90;99.90;;;;;;4995667;28;20074;-63
2022/12/30 06:21:33;;;;;;;21.23;5.90;;;7.80;99.90;;;;;;5004170;28;20546;-62
2022/12/30 06:23:59;;;;;;;18.70;4.75;;;8.30;99.90;;;;;;4994150;28;20050;-63
2022/12/30 06:26:25;;;;;;;18.95;4.70;;;8.10;99.90;;;;;;4994284;28;20125;-63
2022/12/30 06:28:51;;;;;;;14.95;4.05;;;7.90;99.90;;;;;;4995620;28;20057;-62
2022/12/30 06:31:17;;;;;;;18.55;5.28;;;8.00;99.90;;;;;;4994995;28;20046;-64
2022/12/30 06:33:42;;;;;;;16.55;4.50;;;8.30;99.90;;;;;;4992253;28;20093;-63
2022/12/30 06:36:09;;;;;;;16.05;4.25;;;7.80;99.90;;;;;;4992143;28;20595;-63
2022/12/30 06:38:34;;;;;;;20.70;4.32;;;7.70;99.90;;;;;;4993027;28;20470;-64
2022/12/30 06:41:00;;;;;;;14.23;4.10;;;7.70;99.90;;;;;;4994967;28;20050;-63
2022/12/30 06:43:25;;;;;;;22.02;4.10;;;7.80;99.90;;;;;;4993646;28;20407;-62
2022/12/30 06:45:51;;;;;;;19.80;4.00;;;7.90;99.90;;;;;;4994336;28;20492;-63
2022/12/30 06:48:17;;;;;;;18.13;4.50;;;7.40;99.90;;;;;;4994433;28;20050;-62
2022/12/30 06:50:43;;;;;;;20.60;5.05;;;7.40;99.90;;;;;;4993146;28;20042;-63
2022/12/30 06:53:08;;;;;;;15.02;4.85;;;7.40;99.90;;;;;;4992551;28;20078;-64
2022/12/30 06:55:34;;;;;;;17.00;4.20;;;7.30;99.90;;;;;;4993823;28;20026;-62
2022/12/30 06:58:04;;;;;;;22.05;4.95;;;7.40;99.90;;;;;;4992858;28;20125;-63
2022/12/30 07:00:30;;;;;;;20.38;4.32;;;7.10;99.90;;;;;;4994271;28;20045;-63
2022/12/30 07:02:56;;;;;;;15.18;4.72;;;7.50;99.90;;;;;;4993698;28;20495;-63
2022/12/30 07:05:22;;;;;;;15.23;4.50;;;7.50;99.90;;;;;;4993182;28;20125;-63
2022/12/30 07:07:47;;;;;;;17.63;4.93;;;7.60;99.90;;;;;;4991098;28;20042;-64
2022/12/30 07:10:13;;;;;;;22.20;4.95;;;7.70;99.90;;;;;;4993512;28;20042;-62
2022/12/30 07:12:38;;;;;;;14.90;5.07;;;7.60;99.90;;;;;;4993042;28;20042;-62
2022/12/30 07:15:06;;;;;;;13.48;4.25;;;7.40;99.90;;;;;;4993450;28;20034;-62
2022/12/30 07:17:31;;;;;;;14.20;3.83;;;7.30;99.90;;;;;;4990105;28;20058;-62
2022/12/30 07:19:57;;;;;;;15.13;4.00;;;7.10;99.90;;;;;;4991433;28;20525;-62
2022/12/30 07:22:23;;;;;;;18.48;4.32;;;7.20;99.90;;;;;;4993307;28;20121;-63
2022/12/30 07:24:48;;;;;;;14.65;4.30;;;7.40;99.90;;;;;;4993803;28;20038;-62
2022/12/30 07:27:14;;;;;;;12.68;4.43;;;7.60;99.90;;;;;;4993884;28;20134;-63
2022/12/30 07:29:39;;;;;;;11.25;4.10;;;7.40;99.90;;;;;;4993154;28;20046;-62
2022/12/30 07:32:06;;;;;;;20.40;4.75;;;7.60;99.90;;;;;;4993073;28;20045;-62
2022/12/30 07:34:34;;;;;;;19.27;5.30;;;7.70;99.90;;;;;;4993163;28;20077;-63
2022/12/30 07:37:00;;;;;;;21.60;4.40;;;7.50;99.90;;;;;;4992974;28;20088;-63
2022/12/30 07:39:26;;;;;;;20.50;4.88;;;7.50;99.90;;;;;;4993462;28;20169;-62
2022/12/30 07:41:51;;;;;;;18.90;4.47;;;7.30;99.90;;;;;;4994018;28;20503;-62
2022/12/30 07:44:17;;;;;;;15.07;4.32;;;7.40;99.90;;;;;;4993124;28;20046;-62
2022/12/30 07:46:43;;;;;;;17.92;4.35;;;7.10;99.90;;;;;;4992364;28;20036;-63
2022/12/30 07:49:08;;;;;;;15.35;4.22;;;7.20;99.90;;;;;;4992164;28;20140;-63
2022/12/30 07:51:34;;;;;;;14.95;4.43;;;7.10;99.90;;;;;;4993128;28;20119;-62
2022/12/30 07:53:59;;;;;;;15.25;3.72;;;7.10;99.90;;;;;;5002590;28;20030;-62
2022/12/30 07:56:25;;;;;;;19.88;3.88;;;8.20;99.90;;;;;;4993077;28;20054;-62
2022/12/30 07:58:54;;;;;;;14.05;4.65;;;7.30;99.90;;;;;;4994382;28;20053;-62
2022/12/30 08:01:20;;;;;;;17.25;3.63;;;7.10;99.90;;;;;;4994505;28;20057;-62
2022/12/30 08:03:45;;;;;;;19.08;4.40;;;7.50;99.90;;;;;;4991701;28;20038;-62
2022/12/30 08:06:14;;;;;;;17.08;4.20;;;7.30;99.90;;;;;;4992477;28;20046;-62
2022/12/30 08:08:40;;;;;;;12.52;3.47;;;7.60;99.90;;;;;;4993861;28;20085;-62
2022/12/30 08:11:08;;;;;;;14.63;3.63;;;7.60;99.90;;;;;;4993539;28;20492;-61
2022/12/30 08:13:36;;;;;;;9.15;3.13;;;7.40;99.90;;;;;;4991519;28;20061;-63
2022/12/30 08:16:07;;;;;;;12.43;4.13;;;7.50;99.90;;;;;;4990721;28;20093;-63
2022/12/30 08:18:33;;;;;;;20.50;4.20;;;7.80;99.90;;;;;;4991072;28;20037;-64
2022/12/30 08:21:03;;;;;;;16.58;3.67;;;7.60;99.90;;;;;;4992287;28;20038;-62
2022/12/30 08:23:29;;;;;;;12.32;3.47;;;7.40;99.90;;;;;;4988038;28;20077;-62
2022/12/30 08:25:55;;;;;;;11.43;3.58;;;7.60;99.90;;;;;;4987786;28;20036;-62
2022/12/30 08:28:21;;;;;;;16.27;3.72;;;7.40;99.90;;;;;;4992133;28;20038;-63
2022/12/30 08:30:46;;;;;;;18.33;4.38;;;7.70;99.90;;;;;;4990124;28;20037;-63
2022/12/30 08:33:12;;;;;;;19.40;2.90;;;7.40;99.90;;;;;;4994710;28;20042;-63
2022/12/30 08:35:38;;;;;;;28.40;3.70;;;7.60;99.90;;;;;;4996913;28;20109;-63
2022/12/30 08:38:04;;;;;;;13.07;3.25;;;7.40;99.90;;;;;;4990896;28;20045;-63
2022/12/30 08:40:33;;;;;;;12.90;3.67;;;7.80;99.90;;;;;;4990983;28;20042;-62
2022/12/30 08:42:59;;;;;;;10.85;3.20;;;7.40;99.90;;;;;;4990013;28;20046;-63
2022/12/30 08:45:25;;;;;;;14.48;3.45;;;7.50;99.90;;;;;;4994500;28;20499;-62
2022/12/30 08:47:50;;;;;;;22.33;4.70;;;7.70;99.90;;;;;;4993396;28;20510;-62
2022/12/30 08:50:16;;;;;;;19.45;3.65;;;7.80;99.90;;;;;;4992366;28;20042;-63
2022/12/30 08:52:42;;;;;;;21.52;4.30;;;7.60;99.90;;;;;;4989595;28;20042;-63
2022/12/30 08:55:08;;;;;;;16.75;4.70;;;7.40;99.90;;;;;;4991353;28;20034;-62
2022/12/30 08:57:36;;;;;;;16.52;4.03;;;7.40;99.90;;;;;;4991251;28;20054;-62
2022/12/30 09:00:03;;;;;;;18.67;3.83;;;7.40;99.90;;;;;;4990295;28;20132;-62
2022/12/30 09:02:28;;;;;;;14.55;3.47;;;7.50;99.90;;;;;;4990086;28;20483;-62
2022/12/30 09:04:54;;;;;;;13.32;3.70;;;7.50;99.90;;;;;;4990821;28;20041;-63
2022/12/30 09:07:20;;;;;;;18.98;4.30;;;7.50;99.90;;;;;;4988482;28;20363;-63
2022/12/30 09:09:45;;;;;;;13.68;4.03;;;7.90;99.90;;;;;;4993212;28;20036;-62
2022/12/30 09:12:11;;;;;;;17.33;3.85;;;7.50;99.90;;;;;;4988826;28;20038;-63
2022/12/30 09:14:36;;;;;;;22.60;4.07;;;7.50;99.90;;;;;;4987145;28;20041;-62
2022/12/30 09:17:02;;;;;;;11.88;3.45;;;7.50;99.90;;;;;;4992845;28;20039;-64
2022/12/30 09:19:28;;;;;;;20.10;4.18;;;7.90;99.90;;;;;;5006555;28;20137;-63
2022/12/30 09:21:54;;;;;;;18.92;4.13;;;8.00;99.90;;;;;;4991447;28;20117;-63
2022/12/30 09:24:20;;;;;;;15.10;4.25;;;7.70;99.90;;;;;;4991385;28;20402;-62
2022/12/30 09:26:45;;;;;;;11.80;3.63;;;8.00;99.90;;;;;;4988197;28;20050;-65
2022/12/30 09:29:16;;;;;;;13.00;3.42;;;8.10;99.90;;;;;;4984380;28;20042;-63
2022/12/30 09:31:41;;;;;;;14.07;3.67;;;7.80;99.90;;;;;;4988721;28;20076;-63
2022/12/30 09:34:07;;;;;;;12.38;3.10;;;8.00;99.90;;;;;;4989734;28;20038;-63
2022/12/30 09:36:32;;;;;;;14.85;3.85;;;8.10;99.90;;;;;;4987827;28;20071;-63
2022/12/30 09:38:58;;;;;;;17.55;4.13;;;8.00;99.90;;;;;;4990184;28;20077;-65
2022/12/30 09:44:46;;;;;;;15.60;3.55;;;8.20;99.90;;;;;;4995491;28;20503;-63
2022/12/30 09:47:30;;;;;;;14.02;3.92;;;8.10;99.90;;;;;;4991059;28;20042;-63
2022/12/30 09:50:02;;;;;;;12.73;2.83;;;6.90;99.90;;;;;;4994067;28;20068;-63
2022/12/30 09:52:38;;;;;;;18.33;3.67;;;8.30;99.90;;;;;;4996277;28;20038;-64
2022/12/30 09:55:15;;;;;;;14.30;3.70;;;8.00;99.90;;;;;;4995507;28;20443;-63
2022/12/30 09:57:45;;;;;;;15.50;3.88;;;8.30;99.90;;;;;;5005117;28;20826;-63
2022/12/30 10:00:19;;;;;;;12.75;3.33;;;8.00;99.90;;;;;;4991846;28;20113;-63
2022/12/30 10:03:01;;;;;;;11.57;3.45;;;8.40;99.90;;;;;;4993619;28;20054;-63
2022/12/30 10:05:58;;;;;;;8.65;3.03;;;8.20;99.90;;;;;;4991239;28;20096;-63
2022/12/30 10:08:47;;;;;;;10.27;2.90;;;8.20;99.90;;;;;;4993546;28;20476;-63
2022/12/30 10:11:34;;;;;;;8.65;2.85;;;8.50;99.90;;;;;;4992061;28;20051;-64
2022/12/30 10:14:10;;;;;;;;;;;8.50;99.90;;;;;;4987170;28;20034;-63
2022/12/30 10:16:50;;;;;;;13.05;3.53;;;8.60;99.90;;;;;;4993291;28;19922;-62
2022/12/30 10:19:27;;;;;;;13.10;3.65;;;8.40;99.90;;;;;;4990648;28;20464;-64
2022/12/30 10:22:19;;;;;;;11.75;2.75;;;8.60;99.90;;;;;;4990473;28;20499;-63
2022/12/30 10:25:04;;;;;;;14.23;3.30;;;8.50;99.90;;;;;;4982453;28;20138;-63
2022/12/30 10:27:47;;;;;;;11.98;3.67;;;8.50;99.90;;;;;;4994546;28;20038;-64
2022/12/30 10:30:21;;;;;;;10.77;3.03;;;8.50;99.90;;;;;;4996194;28;20065;-63
2022/12/30 10:33:01;;;;;;;12.88;3.33;;;8.50;99.90;;;;;;4992005;28;20049;-63
2022/12/30 10:35:32;;;;;;;8.70;3.35;;;8.40;99.90;;;;;;4990194;28;20058;-65
2022/12/30 10:38:09;;;;;;;15.80;3.85;;;8.80;99.90;;;;;;4992978;28;20044;-63
2022/12/30 10:40:41;;;;;;;10.50;2.95;;;8.80;99.90;;;;;;4993164;28;20047;-64
2022/12/30 10:43:51;;;;;;;12.80;3.25;;;8.50;99.90;;;;;;4997535;28;20046;-64
2022/12/30 10:46:32;;;;;;;9.65;3.00;;;8.80;99.90;;;;;;5000404;28;20038;-63
2022/12/30 10:49:33;;;;;;;10.27;3.30;;;8.50;99.90;;;;;;5001168;28;20125;-65
2022/12/30 10:52:00;;;;;;;9.15;4.15;;;8.80;99.90;;;;;;4982870;28;20054;-63
2022/12/30 10:54:26;;;;;;;10.52;3.47;;;8.80;99.90;;;;;;4992742;28;20034;-64
2022/12/30 10:56:51;;;;;;;8.60;2.30;;;8.90;99.90;;;;;;4994341;28;20046;-63
2022/12/30 10:59:24;;;;;;;7.00;2.80;;;8.90;99.90;;;;;;4994237;28;20050;-64
2022/12/30 11:01:58;;;;;;;7.32;2.60;;;8.90;99.90;;;;;;4995806;28;20043;-65
2022/12/30 11:04:39;;;;;;;12.15;3.03;;;8.70;99.90;;;;;;4994478;28;20124;-64
2022/12/30 11:07:08;;;;;;;9.27;2.65;;;8.70;99.90;;;;;;4992799;28;20039;-64
2022/12/30 11:09:34;;;;;;;5.28;2.38;;;8.80;99.90;;;;;;4990158;28;20561;-63
2022/12/30 11:15:04;;;;;;;8.65;2.42;;;9.00;99.90;;;;;;4986023;28;20131;-63
2022/12/30 11:17:47;;;;;;;7.25;2.70;;;8.90;99.90;;;;;;4989233;28;20522;-63
2022/12/30 11:20:12;;;;;;;9.20;2.53;;;9.00;99.90;;;;;;4987198;28;20051;-64
2022/12/30 11:22:48;;;;;;;10.93;3.17;;;9.00;99.90;;;;;;4989119;28;20483;-63
2022/12/30 11:25:16;;;;;;;;;;;9.00;44.40;;;;;;4987938;28;20089;-63
2022/12/30 11:27:44;;;;;;;10.20;2.50;;;9.20;1.00;;;;;;4992808;28;20362;-63
2022/12/30 11:30:29;;;;;;;8.90;2.78;;;9.10;99.90;;;;;;4994079;28;20042;-63
2022/12/30 11:32:57;;;;;;;8.05;2.63;;;9.20;99.90;;;;;;4991574;28;20074;-63
2022/12/30 11:35:39;;;;;;;11.05;2.53;;;9.30;99.90;;;;;;4993647;28;20568;-63
2022/12/30 11:38:28;;;;;;;10.98;2.47;;;9.50;1.00;;;;;;4989938;28;20066;-63
2022/12/30 11:40:55;;;;;;;8.50;2.53;;;9.40;99.90;;;;;;4992292;28;20037;-63
2022/12/30 11:43:21;;;;;;;8.00;2.45;;;9.50;99.90;;;;;;4989901;28;20050;-63
2022/12/30 11:46:01;;;;;;;6.05;2.30;;;9.50;1.00;;;;;;4991400;28;20503;-62
2022/12/30 11:48:34;;;;;;;4.68;2.05;;;9.40;99.90;;;;;;4991726;28;20042;-63
2022/12/30 11:51:02;;;;;;;8.10;2.80;;;9.50;99.90;;;;;;4992446;28;20046;-63
2022/12/30 11:53:33;;;;;;;9.38;2.17;;;9.40;1.00;;;;;;4992711;28;20070;-63
2022/12/30 11:55:59;;;;;;;6.28;2.42;;;9.50;99.90;;;;;;4989865;28;20034;-63
2022/12/30 11:58:26;;;;;;;8.40;2.35;;;9.40;99.90;;;;;;4986836;28;20053;-64
2022/12/30 12:01:05;;;;;;;8.13;2.03;;;9.60;31.40;;;;;;4989726;28;20041;-65
2022/12/30 12:03:31;;;;;;;7.93;2.20;;;9.50;1.00;;;;;;4988314;28;20111;-65
2022/12/30 12:06:10;;;;;;;3.40;1.80;;;9.80;1.00;;;;;;4984733;28;20035;-64
2022/12/30 12:09:02;;;;;;;5.13;1.92;;;9.70;99.90;;;;;;4991790;28;20602;-63
2022/12/30 12:11:34;;;;;;;5.95;2.15;;;9.90;99.90;;;;;;4985729;28;20046;-64
2022/12/30 12:14:06;;;;;;;5.30;2.17;;;9.90;26.80;;;;;;5004063;28;20095;-64
2022/12/30 12:16:41;;;;;;;7.22;2.35;;;9.70;1.00;;;;;;4993156;28;20088;-63
2022/12/30 12:19:13;;;;;;;8.18;2.25;;;9.90;99.90;;;;;;4990532;28;20446;-64
2022/12/30 12:21:40;;;;;;;5.80;2.03;;;9.80;99.90;;;;;;4989416;28;20074;-63
2022/12/30 12:24:32;;;;;;;8.38;2.47;;;9.80;62.60;;;;;;4990298;28;20038;-64
2022/12/30 12:27:05;;;;;;;7.22;2.20;;;9.90;1.00;;;;;;4992250;28;20034;-64
2022/12/30 12:29:33;;;;;;;6.20;1.80;;;9.80;99.90;;;;;;4992360;28;20065;-66
2022/12/30 12:32:23;;;;;;;8.00;2.38;;;9.80;99.90;;;;;;4982949;28;20710;-64
2022/12/30 12:35:20;;;;;;;8.43;1.95;;;9.80;99.90;;;;;;4990800;28;20034;-64
2022/12/30 12:38:23;;;;;;;8.05;1.80;;;9.80;51.40;;;;;;4985612;28;20576;-65
2022/12/30 12:41:01;;;;;;;6.20;2.03;;;10.10;1.00;;;;;;4991213;28;20508;-63
2022/12/30 12:43:57;;;;;;;9.13;2.30;;;10.20;1.00;;;;;;4989998;28;20041;-63
2022/12/30 12:46:30;;;;;;;6.73;2.40;;;10.10;1.00;;;;;;4990068;28;20531;-63
2022/12/30 12:49:17;;;;;;;8.25;2.00;;;10.10;99.90;;;;;;4987633;28;20343;-64
2022/12/30 12:52:10;;;;;;;7.13;1.80;;;10.20;99.90;;;;;;4975661;28;20137;-64
2022/12/30 12:55:14;;;;;;;7.15;2.30;;;11.50;99.90;;;;;;4975234;28;20492;-64
2022/12/30 12:58:02;;;;;;;6.57;2.88;;;10.00;99.90;;;;;;4977033;28;20051;-63
2022/12/30 13:00:36;;;;;;;6.55;2.00;;;10.00;99.90;;;;;;4978106;28;20058;-65
2022/12/30 13:03:48;;;;;;;7.13;2.17;;;9.90;99.90;;;;;;4990437;28;20058;-65
2022/12/30 13:06:38;;;;;;;6.07;1.98;;;10.10;99.90;;;;;;4921347;29;20433;-64
2022/12/30 13:09:30;;;;;;;5.38;2.03;;;10.00;63.00;;;;;;4981187;28;20120;-64
2022/12/30 13:12:04;;;;;;;9.15;2.25;;;10.20;99.90;;;;;;4987648;28;20050;-63
2022/12/30 13:14:34;;;;;;;8.65;1.92;;;10.20;99.90;;;;;;4987710;28;20530;-64
2022/12/30 13:17:07;;;;;;;9.18;2.05;;;10.30;99.90;;;;;;4990336;28;20113;-64
2022/12/30 13:19:36;;;;;;;7.32;2.17;;;10.30;99.90;;;;;;4989639;28;20042;-64
2022/12/30 13:22:12;;;;;;;7.68;1.95;;;10.20;99.90;;;;;;4987866;28;20087;-65
2022/12/30 13:24:43;;;;;;;6.90;2.00;;;10.00;99.90;;;;;;4990271;28;20051;-64
2022/12/30 13:27:20;;;;;;;13.10;2.67;;;10.20;99.90;;;;;;4989702;28;20117;-64
2022/12/30 13:29:46;;;;;;;8.63;2.40;;;10.30;1.00;;;;;;4982268;28;20109;-64
2022/12/30 13:32:39;;;;;;;5.40;2.05;;;10.60;1.00;;;;;;4988691;28;20503;-64
2022/12/30 13:35:14;;;;;;;11.00;2.72;;;10.00;1.00;;;;;;4982286;28;20041;-66
2022/12/30 13:37:53;;;;;;;5.18;1.90;;;10.10;1.00;;;;;;4983671;28;20045;-64
2022/12/30 13:40:22;;;;;;;4.50;2.00;;;10.00;1.00;;;;;;4988445;28;20518;-63
2022/12/30 13:43:06;;;;;;;6.05;1.90;;;10.00;20.30;;;;;;4991254;28;20041;-64
2022/12/30 13:45:36;;;;;;;6.68;2.30;;;10.30;99.90;;;;;;4989799;28;20042;-64
2022/12/30 13:48:22;;;;;;;5.00;1.70;;;10.40;99.90;;;;;;4987553;28;20057;-64
2022/12/30 13:51:00;;;;;;;7.90;2.50;;;10.00;1.00;;;;;;4986045;28;20562;-65
2022/12/30 13:53:34;;;;;;;7.57;2.22;;;9.90;1.00;;;;;;4986736;28;20061;-63
2022/12/30 13:56:01;;;;;;;6.05;2.10;;;9.90;48.00;;;;;;4978380;28;20046;-63
2022/12/30 13:58:36;;;;;;;8.70;2.50;;;10.20;1.00;;;;;;4986389;28;20713;-64
2022/12/30 14:01:20;;;;;;;7.50;2.35;;;10.20;45.70;;;;;;5004392;28;20101;-64
2022/12/30 14:03:47;;;;;;;5.35;1.92;;;10.00;84.80;;;;;;4987069;28;20129;-63
2022/12/30 14:06:45;;;;;;;4.40;1.90;;;10.00;63.40;;;;;;4990575;28;20035;-63